sensor_id;sensor_type;location;lat;lon;timestamp;temperature;humidity
24152;DHT22;12311;50.866;4.332;2023-01-10T00:01:20;6.20;99.90
24152;DHT22;12311;50.866;4.332;2023-01-10T00:03:46;6.10;99.90
24152;DHT22;12311;50.866;4.332;2023-01-10T00:06:16;6.20;99.90
24152;DHT22;12311;50.866;4.332;2023-01-10T00:08:41;6.20;99.90
24152;DHT22;12311;50.866;4.332;2023-01-10T00:11:07;6.20;99.90
24152;DHT22;12311;50.866;4.332;2023-01-10T00:13:55;6.20;99.90
24152;DHT22;12311;50.866;4.332;2023-01-10T00:16:21;6.20;99.90
24152;DHT22;12311;50.866;4.332;2023-01-10T00:18:47;6.20;99.90
24152;DHT22;12311;50.866;4.332;2023-01-10T00:21:13;6.40;99.90
24152;DHT22;12311;50.866;4.332;2023-01-10T00:23:40;6.40;99.90
24152;DHT22;12311;50.866;4.332;2023-01-10T00:26:06;6.40;99.90
24152;DHT22;12311;50.866;4.332;2023-01-10T00:28:31;6.30;99.90
24152;DHT22;12311;50.866;4.332;2023-01-10T00:31:01;6.40;99.90
24152;DHT22;12311;50.866;4.332;2023-01-10T00:33:37;6.40;99.90
24152;DHT22;12311;50.866;4.332;2023-01-10T00:36:05;6.50;99.90
24152;DHT22;12311;50.866;4.332;2023-01-10T00:38:32;6.50;99.90
24152;DHT22;12311;50.866;4.332;2023-01-10T00:40:58;6.60;99.90
24152;DHT22;12311;50.866;4.332;2023-01-10T00:43:24;6.60;99.90
24152;DHT22;12311;50.866;4.332;2023-01-10T00:46:09;6.60;99.90
24152;DHT22;12311;50.866;4.332;2023-01-10T00:48:35;6.70;99.90
24152;DHT22;12311;50.866;4.332;2023-01-10T00:51:01;6.60;99.90
24152;DHT22;12311;50.866;4.332;2023-01-10T00:53:26;6.70;99.90
24152;DHT22;12311;50.866;4.332;2023-01-10T00:55:53;6.70;99.90
24152;DHT22;12311;50.866;4.332;2023-01-10T00:58:20;6.80;99.90
24152;DHT22;12311;50.866;4.332;2023-01-10T01:00:45;6.90;99.90
24152;DHT22;12311;50.866;4.332;2023-01-10T01:03:14;6.90;99.90
24152;DHT22;12311;50.866;4.332;2023-01-10T01:05:41;6.90;99.90
24152;DHT22;12311;50.866;4.332;2023-01-10T01:08:09;6.90;99.90
24152;DHT22;12311;50.866;4.332;2023-01-10T01:10:35;6.90;99.90
24152;DHT22;12311;50.866;4.332;2023-01-10T01:13:30;6.90;99.90
24152;DHT22;12311;50.866;4.332;2023-01-10T01:15:59;6.80;99.90
24152;DHT22;12311;50.866;4.332;2023-01-10T01:18:25;6.80;99.90
24152;DHT22;12311;50.866;4.332;2023-01-10T01:20:53;6.70;99.90
24152;DHT22;12311;50.866;4.332;2023-01-10T01:23:20;6.70;99.90
24152;DHT22;12311;50.866;4.332;2023-01-10T01:25:49;6.80;99.90
24152;DHT22;12311;50.866;4.332;2023-01-10T01:28:15;6.70;99.90
24152;DHT22;12311;50.866;4.332;2023-01-10T01:30:41;6.70;99.90
24152;DHT22;12311;50.866;4.332;2023-01-10T01:33:07;6.70;99.90
24152;DHT22;12311;50.866;4.332;2023-01-10T01:35:33;6.70;99.90
24152;DHT22;12311;50.866;4.332;2023-01-10T01:37:58;6.60;99.90
24152;DHT22;12311;50.866;4.332;2023-01-10T01:40:24;6.50;99.90
24152;DHT22;12311;50.866;4.332;2023-01-10T01:42:50;6.60;99.90
24152;DHT22;12311;50.866;4.332;2023-01-10T01:50:21;6.40;99.90
24152;DHT22;12311;50.866;4.332;2023-01-10T01:52:54;6.40;99.90
24152;DHT22;12311;50.866;4.332;2023-01-10T01:55:21;6.40;99.90
24152;DHT22;12311;50.866;4.332;2023-01-10T01:57:51;6.30;99.90
24152;DHT22;12311;50.866;4.332;2023-01-10T02:00:18;6.30;99.90
24152;DHT22;12311;50.866;4.332;2023-01-10T02:02:50;6.30;99.90
24152;DHT22;12311;50.866;4.332;2023-01-10T02:05:18;6.30;99.90
24152;DHT22;12311;50.866;4.332;2023-01-10T02:07:49;6.30;99.90
24152;DHT22;12311;50.866;4.332;2023-01-10T02:12:45;6.30;99.90
24152;DHT22;12311;50.866;4.332;2023-01-10T02:15:12;6.20;99.90
24152;DHT22;12311;50.866;4.332;2023-01-10T02:17:40;6.30;99.90
24152;DHT22;12311;50.866;4.332;2023-01-10T02:20:08;6.30;99.90
24152;DHT22;12311;50.866;4.332;2023-01-10T02:30:54;6.00;99.90
24152;DHT22;12311;50.866;4.332;2023-01-10T02:33:47;6.00;99.90
24152;DHT22;12311;50.866;4.332;2023-01-10T02:38:57;5.90;99.90
24152;DHT22;12311;50.866;4.332;2023-01-10T02:43:59;5.80;99.90
24152;DHT22;12311;50.866;4.332;2023-01-10T02:46:33;5.80;99.90
24152;DHT22;12311;50.866;4.332;2023-01-10T02:49:00;5.70;99.90
24152;DHT22;12311;50.866;4.332;2023-01-10T02:51:28;5.70;99.90
24152;DHT22;12311;50.866;4.332;2023-01-10T02:54:08;5.60;99.90
24152;DHT22;12311;50.866;4.332;2023-01-10T02:59:33;5.70;99.90
24152;DHT22;12311;50.866;4.332;2023-01-10T03:07:32;5.50;99.90
24152;DHT22;12311;50.866;4.332;2023-01-10T03:10:34;5.50;99.90
24152;DHT22;12311;50.866;4.332;2023-01-10T03:13:20;5.50;99.90
24152;DHT22;12311;50.866;4.332;2023-01-10T03:15:49;5.50;99.90
24152;DHT22;12311;50.866;4.332;2023-01-10T03:18:23;5.50;99.90
24152;DHT22;12311;50.866;4.332;2023-01-10T03:20:52;5.60;99.90
24152;DHT22;12311;50.866;4.332;2023-01-10T03:23:21;5.60;99.90
24152;DHT22;12311;50.866;4.332;2023-01-10T03:25:49;5.70;99.90
24152;DHT22;12311;50.866;4.332;2023-01-10T03:28:19;5.70;99.90
24152;DHT22;12311;50.866;4.332;2023-01-10T03:30:53;5.70;99.90
24152;DHT22;12311;50.866;4.332;2023-01-10T03:33:30;5.80;99.90
24152;DHT22;12311;50.866;4.332;2023-01-10T03:39:24;6.00;99.90
24152;DHT22;12311;50.866;4.332;2023-01-10T03:42:04;5.90;99.90
24152;DHT22;12311;50.866;4.332;2023-01-10T03:50:16;5.80;99.90
24152;DHT22;12311;50.866;4.332;2023-01-10T03:52:43;5.70;99.90
24152;DHT22;12311;50.866;4.332;2023-01-10T03:55:11;5.70;99.90
24152;DHT22;12311;50.866;4.332;2023-01-10T03:57:41;5.70;99.90
24152;DHT22;12311;50.866;4.332;2023-01-10T04:00:08;5.70;99.90
24152;DHT22;12311;50.866;4.332;2023-01-10T04:02:33;5.50;99.90
24152;DHT22;12311;50.866;4.332;2023-01-10T04:04:59;5.50;99.90
24152;DHT22;12311;50.866;4.332;2023-01-10T04:07:25;5.50;99.90
24152;DHT22;12311;50.866;4.332;2023-01-10T04:09:51;5.40;99.90
24152;DHT22;12311;50.866;4.332;2023-01-10T04:12:17;5.40;99.90
24152;DHT22;12311;50.866;4.332;2023-01-10T04:14:43;5.40;99.90
24152;DHT22;12311;50.866;4.332;2023-01-10T04:17:12;5.40;99.90
24152;DHT22;12311;50.866;4.332;2023-01-10T04:19:39;5.30;99.90
24152;DHT22;12311;50.866;4.332;2023-01-10T04:22:04;5.30;99.90
24152;DHT22;12311;50.866;4.332;2023-01-10T04:24:31;5.20;99.90
24152;DHT22;12311;50.866;4.332;2023-01-10T04:26:57;5.20;99.90
24152;DHT22;12311;50.866;4.332;2023-01-10T04:29:23;5.20;99.90
24152;DHT22;12311;50.866;4.332;2023-01-10T04:31:49;5.10;99.90
24152;DHT22;12311;50.866;4.332;2023-01-10T04:34:14;5.10;99.90
24152;DHT22;12311;50.866;4.332;2023-01-10T04:36:41;5.10;99.90
24152;DHT22;12311;50.866;4.332;2023-01-10T04:39:07;5.10;99.90
24152;DHT22;12311;50.866;4.332;2023-01-10T04:41:32;5.10;99.90
24152;DHT22;12311;50.866;4.332;2023-01-10T04:43:58;5.10;99.90
24152;DHT22;12311;50.866;4.332;2023-01-10T04:46:24;5.00;99.90
24152;DHT22;12311;50.866;4.332;2023-01-10T04:48:49;5.00;99.90
24152;DHT22;12311;50.866;4.332;2023-01-10T04:51:15;5.00;99.90
24152;DHT22;12311;50.866;4.332;2023-01-10T04:53:41;5.00;99.90
24152;DHT22;12311;50.866;4.332;2023-01-10T04:56:09;5.00;99.90
24152;DHT22;12311;50.866;4.332;2023-01-10T04:58:37;5.00;99.90
24152;DHT22;12311;50.866;4.332;2023-01-10T05:01:11;5.10;99.90
24152;DHT22;12311;50.866;4.332;2023-01-10T05:03:37;5.00;99.90
24152;DHT22;12311;50.866;4.332;2023-01-10T05:06:04;4.90;99.90
24152;DHT22;12311;50.866;4.332;2023-01-10T05:08:30;4.90;99.90
24152;DHT22;12311;50.866;4.332;2023-01-10T05:10:55;5.00;99.90
24152;DHT22;12311;50.866;4.332;2023-01-10T05:13:21;5.00;99.90
24152;DHT22;12311;50.866;4.332;2023-01-10T05:15:47;5.00;99.90
24152;DHT22;12311;50.866;4.332;2023-01-10T05:18:13;5.00;99.90
24152;DHT22;12311;50.866;4.332;2023-01-10T05:20:39;5.00;99.90
24152;DHT22;12311;50.866;4.332;2023-01-10T05:23:04;5.00;99.90
24152;DHT22;12311;50.866;4.332;2023-01-10T05:25:30;5.10;99.90
24152;DHT22;12311;50.866;4.332;2023-01-10T05:27:55;5.10;99.90
24152;DHT22;12311;50.866;4.332;2023-01-10T05:30:21;5.00;99.90
24152;DHT22;12311;50.866;4.332;2023-01-10T05:32:47;5.10;99.90
24152;DHT22;12311;50.866;4.332;2023-01-10T05:35:12;5.10;99.90
24152;DHT22;12311;50.866;4.332;2023-01-10T05:37:38;5.00;99.90
24152;DHT22;12311;50.866;4.332;2023-01-10T05:40:05;5.00;99.90
24152;DHT22;12311;50.866;4.332;2023-01-10T05:42:31;5.10;99.90
24152;DHT22;12311;50.866;4.332;2023-01-10T05:44:56;5.00;99.90
24152;DHT22;12311;50.866;4.332;2023-01-10T05:47:22;5.00;99.90
24152;DHT22;12311;50.866;4.332;2023-01-10T05:49:49;5.00;99.90
24152;DHT22;12311;50.866;4.332;2023-01-10T05:52:15;5.10;99.90
24152;DHT22;12311;50.866;4.332;2023-01-10T05:54:41;5.10;99.90
24152;DHT22;12311;50.866;4.332;2023-01-10T05:57:06;5.00;99.90
24152;DHT22;12311;50.866;4.332;2023-01-10T05:59:32;4.90;99.90
24152;DHT22;12311;50.866;4.332;2023-01-10T06:01:58;5.00;99.90
24152;DHT22;12311;50.866;4.332;2023-01-10T06:04:23;5.00;99.90
24152;DHT22;12311;50.866;4.332;2023-01-10T06:06:49;4.90;99.90
24152;DHT22;12311;50.866;4.332;2023-01-10T06:09:15;4.90;99.90
24152;DHT22;12311;50.866;4.332;2023-01-10T06:11:40;4.90;99.90
24152;DHT22;12311;50.866;4.332;2023-01-10T06:14:06;4.90;99.90
24152;DHT22;12311;50.866;4.332;2023-01-10T06:16:32;4.90;99.90
24152;DHT22;12311;50.866;4.332;2023-01-10T06:18:58;4.80;99.90
24152;DHT22;12311;50.866;4.332;2023-01-10T06:21:23;4.90;99.90
24152;DHT22;12311;50.866;4.332;2023-01-10T06:23:49;4.80;99.90
24152;DHT22;12311;50.866;4.332;2023-01-10T06:26:15;4.80;99.90
24152;DHT22;12311;50.866;4.332;2023-01-10T06:28:40;4.80;99.90
24152;DHT22;12311;50.866;4.332;2023-01-10T06:31:07;4.70;99.90
24152;DHT22;12311;50.866;4.332;2023-01-10T06:33:33;4.70;99.90
24152;DHT22;12311;50.866;4.332;2023-01-10T06:35:59;4.70;99.90
24152;DHT22;12311;50.866;4.332;2023-01-10T06:38:24;4.70;99.90
24152;DHT22;12311;50.866;4.332;2023-01-10T06:40:50;4.70;99.90
24152;DHT22;12311;50.866;4.332;2023-01-10T06:43:24;4.70;99.90
24152;DHT22;12311;50.866;4.332;2023-01-10T06:45:50;4.70;99.90
24152;DHT22;12311;50.866;4.332;2023-01-10T06:48:15;4.60;99.90
24152;DHT22;12311;50.866;4.332;2023-01-10T06:50:41;4.70;99.90
24152;DHT22;12311;50.866;4.332;2023-01-10T06:53:07;4.70;99.90
24152;DHT22;12311;50.866;4.332;2023-01-10T06:55:33;4.70;99.90
24152;DHT22;12311;50.866;4.332;2023-01-10T06:58:01;4.70;99.90
24152;DHT22;12311;50.866;4.332;2023-01-10T07:00:28;4.70;99.90
24152;DHT22;12311;50.866;4.332;2023-01-10T07:02:56;4.70;99.90
24152;DHT22;12311;50.866;4.332;2023-01-10T07:05:22;4.70;99.90
24152;DHT22;12311;50.866;4.332;2023-01-10T07:07:48;4.60;99.90
24152;DHT22;12311;50.866;4.332;2023-01-10T07:10:13;4.70;99.90
24152;DHT22;12311;50.866;4.332;2023-01-10T07:12:39;4.60;99.90
24152;DHT22;12311;50.866;4.332;2023-01-10T07:15:05;4.60;99.90
24152;DHT22;12311;50.866;4.332;2023-01-10T07:17:31;4.60;99.90
24152;DHT22;12311;50.866;4.332;2023-01-10T07:19:57;4.50;99.90
24152;DHT22;12311;50.866;4.332;2023-01-10T07:22:23;4.50;99.90
24152;DHT22;12311;50.866;4.332;2023-01-10T07:24:49;4.50;99.90
24152;DHT22;12311;50.866;4.332;2023-01-10T07:27:14;4.50;99.90
24152;DHT22;12311;50.866;4.332;2023-01-10T07:29:41;4.50;99.90
24152;DHT22;12311;50.866;4.332;2023-01-10T07:32:06;4.50;99.90
24152;DHT22;12311;50.866;4.332;2023-01-10T07:34:32;4.60;99.90
24152;DHT22;12311;50.866;4.332;2023-01-10T07:36:58;4.50;99.90
24152;DHT22;12311;50.866;4.332;2023-01-10T07:39:23;4.50;99.90
24152;DHT22;12311;50.866;4.332;2023-01-10T07:41:49;4.50;99.90
24152;DHT22;12311;50.866;4.332;2023-01-10T07:44:15;4.60;99.90
24152;DHT22;12311;50.866;4.332;2023-01-10T07:46:41;4.50;99.90
24152;DHT22;12311;50.866;4.332;2023-01-10T07:49:07;4.60;99.90
24152;DHT22;12311;50.866;4.332;2023-01-10T07:51:33;4.60;99.90
24152;DHT22;12311;50.866;4.332;2023-01-10T07:53:58;4.60;99.90
24152;DHT22;12311;50.866;4.332;2023-01-10T07:56:24;4.60;99.90
24152;DHT22;12311;50.866;4.332;2023-01-10T07:58:50;4.70;99.90
24152;DHT22;12311;50.866;4.332;2023-01-10T08:01:16;4.70;99.90
24152;DHT22;12311;50.866;4.332;2023-01-10T08:03:42;4.80;99.90
24152;DHT22;12311;50.866;4.332;2023-01-10T08:06:09;4.80;99.90
24152;DHT22;12311;50.866;4.332;2023-01-10T08:08:36;4.80;99.90
24152;DHT22;12311;50.866;4.332;2023-01-10T08:11:01;4.80;99.90
24152;DHT22;12311;50.866;4.332;2023-01-10T08:13:28;4.90;99.90
24152;DHT22;12311;50.866;4.332;2023-01-10T08:15:54;4.90;99.90
24152;DHT22;12311;50.866;4.332;2023-01-10T08:18:21;4.90;99.90
24152;DHT22;12311;50.866;4.332;2023-01-10T08:20:48;5.00;99.90
24152;DHT22;12311;50.866;4.332;2023-01-10T08:23:15;5.10;99.90
24152;DHT22;12311;50.866;4.332;2023-01-10T08:25:41;5.10;99.90
24152;DHT22;12311;50.866;4.332;2023-01-10T08:28:06;5.10;99.90
24152;DHT22;12311;50.866;4.332;2023-01-10T08:30:32;5.10;99.90
24152;DHT22;12311;50.866;4.332;2023-01-10T08:33:01;5.20;99.90
24152;DHT22;12311;50.866;4.332;2023-01-10T08:35:28;5.20;99.90
24152;DHT22;12311;50.866;4.332;2023-01-10T08:37:57;5.30;99.90
24152;DHT22;12311;50.866;4.332;2023-01-10T08:40:23;5.30;99.90
24152;DHT22;12311;50.866;4.332;2023-01-10T08:42:56;5.30;99.90
24152;DHT22;12311;50.866;4.332;2023-01-10T08:45:22;5.30;99.90
24152;DHT22;12311;50.866;4.332;2023-01-10T08:47:47;5.30;99.90
24152;DHT22;12311;50.866;4.332;2023-01-10T08:50:13;5.40;99.90
24152;DHT22;12311;50.866;4.332;2023-01-10T08:52:39;5.50;99.90
24152;DHT22;12311;50.866;4.332;2023-01-10T08:55:05;5.40;99.90
24152;DHT22;12311;50.866;4.332;2023-01-10T08:57:31;5.40;99.90
24152;DHT22;12311;50.866;4.332;2023-01-10T08:59:56;5.50;99.90
24152;DHT22;12311;50.866;4.332;2023-01-10T09:02:22;5.50;99.90
24152;DHT22;12311;50.866;4.332;2023-01-10T09:04:48;5.50;99.90
24152;DHT22;12311;50.866;4.332;2023-01-10T09:07:14;5.60;99.90
24152;DHT22;12311;50.866;4.332;2023-01-10T09:09:39;5.60;99.90
24152;DHT22;12311;50.866;4.332;2023-01-10T09:12:05;5.70;99.90
24152;DHT22;12311;50.866;4.332;2023-01-10T09:14:50;5.70;99.90
24152;DHT22;12311;50.866;4.332;2023-01-10T09:17:16;5.70;99.90
24152;DHT22;12311;50.866;4.332;2023-01-10T09:19:42;5.60;99.90
24152;DHT22;12311;50.866;4.332;2023-01-10T09:22:07;5.70;99.90
24152;DHT22;12311;50.866;4.332;2023-01-10T09:24:34;5.70;99.90
24152;DHT22;12311;50.866;4.332;2023-01-10T09:27:00;5.70;99.90
24152;DHT22;12311;50.866;4.332;2023-01-10T09:29:25;5.70;99.90
24152;DHT22;12311;50.866;4.332;2023-01-10T09:31:51;5.90;99.90
24152;DHT22;12311;50.866;4.332;2023-01-10T09:34:16;5.80;99.90
24152;DHT22;12311;50.866;4.332;2023-01-10T09:36:42;5.80;99.90
24152;DHT22;12311;50.866;4.332;2023-01-10T09:39:08;5.80;99.90
24152;DHT22;12311;50.866;4.332;2023-01-10T09:41:39;5.90;99.90
24152;DHT22;12311;50.866;4.332;2023-01-10T09:44:41;6.10;99.90
24152;DHT22;12311;50.866;4.332;2023-01-10T09:47:40;6.10;99.90
24152;DHT22;12311;50.866;4.332;2023-01-10T09:52:50;6.20;99.90
24152;DHT22;12311;50.866;4.332;2023-01-10T09:57:49;6.40;99.90
24152;DHT22;12311;50.866;4.332;2023-01-10T10:00:22;6.30;99.90
24152;DHT22;12311;50.866;4.332;2023-01-10T10:02:51;6.30;99.90
24152;DHT22;12311;50.866;4.332;2023-01-10T10:05:25;6.40;99.90
24152;DHT22;12311;50.866;4.332;2023-01-10T10:07:57;6.40;99.90
24152;DHT22;12311;50.866;4.332;2023-01-10T10:10:35;6.50;99.90
24152;DHT22;12311;50.866;4.332;2023-01-10T10:16:04;6.50;99.90
24152;DHT22;12311;50.866;4.332;2023-01-10T10:18:47;6.70;99.90
24152;DHT22;12311;50.866;4.332;2023-01-10T10:26:57;6.80;99.90
24152;DHT22;12311;50.866;4.332;2023-01-10T10:34:55;6.90;99.90
24152;DHT22;12311;50.866;4.332;2023-01-10T10:37:26;6.90;99.90
24152;DHT22;12311;50.866;4.332;2023-01-10T10:40:14;7.00;99.90
24152;DHT22;12311;50.866;4.332;2023-01-10T10:42:49;7.10;99.90
24152;DHT22;12311;50.866;4.332;2023-01-10T10:47:48;7.30;99.90
24152;DHT22;12311;50.866;4.332;2023-01-10T10:50:33;7.30;99.90
24152;DHT22;12311;50.866;4.332;2023-01-10T10:53:01;7.40;99.90
24152;DHT22;12311;50.866;4.332;2023-01-10T10:55:32;7.50;99.90
24152;DHT22;12311;50.866;4.332;2023-01-10T10:57:59;7.50;99.90
24152;DHT22;12311;50.866;4.332;2023-01-10T11:00:25;7.60;99.90
24152;DHT22;12311;50.866;4.332;2023-01-10T11:03:15;7.60;99.90
24152;DHT22;12311;50.866;4.332;2023-01-10T11:05:45;7.60;99.90
24152;DHT22;12311;50.866;4.332;2023-01-10T11:08:13;7.60;99.90
24152;DHT22;12311;50.866;4.332;2023-01-10T11:10:52;7.50;99.90
24152;DHT22;12311;50.866;4.332;2023-01-10T11:15:57;7.70;99.90
24152;DHT22;12311;50.866;4.332;2023-01-10T11:18:28;7.70;99.90
24152;DHT22;12311;50.866;4.332;2023-01-10T11:21:02;7.70;99.90
24152;DHT22;12311;50.866;4.332;2023-01-10T11:26:36;7.80;99.90
24152;DHT22;12311;50.866;4.332;2023-01-10T11:29:16;7.80;99.90
24152;DHT22;12311;50.866;4.332;2023-01-10T11:31:43;8.00;99.90
24152;DHT22;12311;50.866;4.332;2023-01-10T11:34:23;7.90;99.90
24152;DHT22;12311;50.866;4.332;2023-01-10T11:37:04;8.00;99.90
24152;DHT22;12311;50.866;4.332;2023-01-10T11:39:31;8.10;99.90
24152;DHT22;12311;50.866;4.332;2023-01-10T11:42:00;8.10;99.90
24152;DHT22;12311;50.866;4.332;2023-01-10T11:44:42;8.10;99.90
24152;DHT22;12311;50.866;4.332;2023-01-10T11:47:10;8.10;99.90
24152;DHT22;12311;50.866;4.332;2023-01-10T11:49:41;8.10;99.90
24152;DHT22;12311;50.866;4.332;2023-01-10T11:52:26;8.20;99.90
24152;DHT22;12311;50.866;4.332;2023-01-10T11:54:57;8.20;99.90
24152;DHT22;12311;50.866;4.332;2023-01-10T11:57:29;8.20;99.90
24152;DHT22;12311;50.866;4.332;2023-01-10T11:59:58;8.30;99.90
24152;DHT22;12311;50.866;4.332;2023-01-10T12:04:57;8.40;99.90
24152;DHT22;12311;50.866;4.332;2023-01-10T12:07:23;8.20;99.90
24152;DHT22;12311;50.866;4.332;2023-01-10T12:09:59;8.30;99.90
24152;DHT22;12311;50.866;4.332;2023-01-10T12:12:32;8.30;99.90
24152;DHT22;12311;50.866;4.332;2023-01-10T12:15:20;8.30;99.90
24152;DHT22;12311;50.866;4.332;2023-01-10T12:17:46;8.20;99.90
24152;DHT22;12311;50.866;4.332;2023-01-10T12:20:13;8.20;99.90
24152;DHT22;12311;50.866;4.332;2023-01-10T12:22:41;8.00;99.90
24152;DHT22;12311;50.866;4.332;2023-01-10T12:27:44;8.00;99.90
24152;DHT22;12311;50.866;4.332;2023-01-10T12:30:36;7.90;99.90
24152;DHT22;12311;50.866;4.332;2023-01-10T12:35:58;8.00;99.90
24152;DHT22;12311;50.866;4.332;2023-01-10T12:38:37;8.10;99.90
24152;DHT22;12311;50.866;4.332;2023-01-10T12:41:32;8.00;99.90
24152;DHT22;12311;50.866;4.332;2023-01-10T12:44:23;7.90;99.90
24152;DHT22;12311;50.866;4.332;2023-01-10T12:47:19;7.80;99.90
24152;DHT22;12311;50.866;4.332;2023-01-10T12:50:16;7.70;99.90
24152;DHT22;12311;50.866;4.332;2023-01-10T12:52:50;7.60;99.90
24152;DHT22;12311;50.866;4.332;2023-01-10T12:55:22;7.60;99.90
24152;DHT22;12311;50.866;4.332;2023-01-10T12:57:51;7.50;99.90
24152;DHT22;12311;50.866;4.332;2023-01-10T13:00:25;7.50;99.90
24152;DHT22;12311;50.866;4.332;2023-01-10T13:02:56;7.50;99.90
24152;DHT22;12311;50.866;4.332;2023-01-10T13:05:26;7.50;99.90
24152;DHT22;12311;50.866;4.332;2023-01-10T13:07:58;7.50;99.90
24152;DHT22;12311;50.866;4.332;2023-01-10T13:10:25;7.40;99.90
24152;DHT22;12311;50.866;4.332;2023-01-10T13:12:58;7.50;99.90
24152;DHT22;12311;50.866;4.332;2023-01-10T13:15:29;7.40;99.90
24152;DHT22;12311;50.866;4.332;2023-01-10T13:20:43;7.30;99.90
24152;DHT22;12311;50.866;4.332;2023-01-10T13:23:30;7.30;99.90
24152;DHT22;12311;50.866;4.332;2023-01-10T13:26:03;7.20;99.90
24152;DHT22;12311;50.866;4.332;2023-01-10T13:28:38;7.20;99.90
24152;DHT22;12311;50.866;4.332;2023-01-10T13:31:19;7.20;99.90
24152;DHT22;12311;50.866;4.332;2023-01-10T13:36:24;7.20;99.90
24152;DHT22;12311;50.866;4.332;2023-01-10T13:38:58;7.10;99.90
24152;DHT22;12311;50.866;4.332;2023-01-10T13:55:27;7.10;99.90
24152;DHT22;12311;50.866;4.332;2023-01-10T13:57:55;7.00;99.90
24152;DHT22;12311;50.866;4.332;2023-01-10T14:00:43;7.00;99.90
24152;DHT22;12311;50.866;4.332;2023-01-10T14:03:50;6.90;99.90
24152;DHT22;12311;50.866;4.332;2023-01-10T14:11:25;6.90;99.90
24152;DHT22;12311;50.866;4.332;2023-01-10T14:13:56;7.00;99.90
24152;DHT22;12311;50.866;4.332;2023-01-10T14:18:51;6.90;99.90
24152;DHT22;12311;50.866;4.332;2023-01-10T14:21:25;6.90;99.90
24152;DHT22;12311;50.866;4.332;2023-01-10T14:23:54;6.80;99.90
24152;DHT22;12311;50.866;4.332;2023-01-10T14:29:05;6.80;99.90
24152;DHT22;12311;50.866;4.332;2023-01-10T14:31:33;6.80;99.90
24152;DHT22;12311;50.866;4.332;2023-01-10T14:34:03;6.90;99.90
24152;DHT22;12311;50.866;4.332;2023-01-10T14:36:42;6.90;99.90
24152;DHT22;12311;50.866;4.332;2023-01-10T14:39:14;6.90;99.90
24152;DHT22;12311;50.866;4.332;2023-01-10T14:41:43;6.90;99.90
24152;DHT22;12311;50.866;4.332;2023-01-10T14:44:20;6.90;99.90
24152;DHT22;12311;50.866;4.332;2023-01-10T14:46:49;6.90;99.90
24152;DHT22;12311;50.866;4.332;2023-01-10T14:49:34;6.90;99.90
24152;DHT22;12311;50.866;4.332;2023-01-10T14:52:29;7.00;99.90
24152;DHT22;12311;50.866;4.332;2023-01-10T14:55:16;7.00;99.90
24152;DHT22;12311;50.866;4.332;2023-01-10T14:57:52;7.00;99.90
24152;DHT22;12311;50.866;4.332;2023-01-10T15:00:32;7.00;99.90
24152;DHT22;12311;50.866;4.332;2023-01-10T15:03:00;7.00;99.90
24152;DHT22;12311;50.866;4.332;2023-01-10T15:05:30;7.00;99.90
24152;DHT22;12311;50.866;4.332;2023-01-10T15:08:24;7.00;99.90
24152;DHT22;12311;50.866;4.332;2023-01-10T15:10:59;6.90;99.90
24152;DHT22;12311;50.866;4.332;2023-01-10T15:13:27;6.90;99.90
24152;DHT22;12311;50.866;4.332;2023-01-10T15:15:54;6.90;99.90
24152;DHT22;12311;50.866;4.332;2023-01-10T15:18:39;6.90;99.90
24152;DHT22;12311;50.866;4.332;2023-01-10T15:21:10;7.00;99.90
24152;DHT22;12311;50.866;4.332;2023-01-10T15:23:38;6.90;99.90
24152;DHT22;12311;50.866;4.332;2023-01-10T15:26:07;6.90;99.90
24152;DHT22;12311;50.866;4.332;2023-01-10T15:28:39;6.90;99.90
24152;DHT22;12311;50.866;4.332;2023-01-10T15:31:07;6.90;99.90
24152;DHT22;12311;50.866;4.332;2023-01-10T15:33:34;6.90;99.90
24152;DHT22;12311;50.866;4.332;2023-01-10T15:36:15;6.90;99.90
24152;DHT22;12311;50.866;4.332;2023-01-10T15:38:43;6.90;99.90
24152;DHT22;12311;50.866;4.332;2023-01-10T15:41:16;6.80;99.90
24152;DHT22;12311;50.866;4.332;2023-01-10T15:43:42;6.90;99.90
24152;DHT22;12311;50.866;4.332;2023-01-10T15:46:18;6.90;99.90
24152;DHT22;12311;50.866;4.332;2023-01-10T15:48:54;6.90;99.90
24152;DHT22;12311;50.866;4.332;2023-01-10T15:51:27;6.90;99.90
24152;DHT22;12311;50.866;4.332;2023-01-10T15:58:58;7.00;99.90
24152;DHT22;12311;50.866;4.332;2023-01-10T16:01:24;7.00;99.90
24152;DHT22;12311;50.866;4.332;2023-01-10T16:04:02;7.00;99.90
24152;DHT22;12311;50.866;4.332;2023-01-10T16:06:33;7.00;99.90
24152;DHT22;12311;50.866;4.332;2023-01-10T16:09:06;7.00;99.90
24152;DHT22;12311;50.866;4.332;2023-01-10T16:11:45;7.00;99.90
24152;DHT22;12311;50.866;4.332;2023-01-10T16:14:30;7.10;99.90
24152;DHT22;12311;50.866;4.332;2023-01-10T16:16:56;7.20;99.90
24152;DHT22;12311;50.866;4.332;2023-01-10T16:19:22;7.20;99.90
24152;DHT22;12311;50.866;4.332;2023-01-10T16:21:53;7.30;99.90
24152;DHT22;12311;50.866;4.332;2023-01-10T16:24:24;7.30;99.90
24152;DHT22;12311;50.866;4.332;2023-01-10T16:26:50;7.30;99.90
24152;DHT22;12311;50.866;4.332;2023-01-10T16:29:16;7.50;99.90
24152;DHT22;12311;50.866;4.332;2023-01-10T16:31:42;7.50;99.90
24152;DHT22;12311;50.866;4.332;2023-01-10T16:34:08;7.50;99.90
24152;DHT22;12311;50.866;4.332;2023-01-10T16:36:34;7.50;99.90
24152;DHT22;12311;50.866;4.332;2023-01-10T16:39:12;7.50;99.90
24152;DHT22;12311;50.866;4.332;2023-01-10T16:41:38;7.50;99.90
24152;DHT22;12311;50.866;4.332;2023-01-10T16:44:22;7.60;99.90
24152;DHT22;12311;50.866;4.332;2023-01-10T16:46:48;7.60;99.90
24152;DHT22;12311;50.866;4.332;2023-01-10T16:49:15;7.60;99.90
24152;DHT22;12311;50.866;4.332;2023-01-10T16:51:42;7.70;99.90
24152;DHT22;12311;50.866;4.332;2023-01-10T16:54:15;7.80;99.90
24152;DHT22;12311;50.866;4.332;2023-01-10T16:56:44;7.80;99.90
24152;DHT22;12311;50.866;4.332;2023-01-10T16:59:11;7.80;99.90
24152;DHT22;12311;50.866;4.332;2023-01-10T17:01:41;7.80;99.90
24152;DHT22;12311;50.866;4.332;2023-01-10T17:04:09;7.90;99.90
24152;DHT22;12311;50.866;4.332;2023-01-10T17:06:36;7.80;99.90
24152;DHT22;12311;50.866;4.332;2023-01-10T17:09:02;7.90;99.90
24152;DHT22;12311;50.866;4.332;2023-01-10T17:11:31;8.00;99.90
24152;DHT22;12311;50.866;4.332;2023-01-10T17:13:58;7.90;99.90
24152;DHT22;12311;50.866;4.332;2023-01-10T17:16:25;8.00;99.90
24152;DHT22;12311;50.866;4.332;2023-01-10T17:18:51;8.00;99.90
24152;DHT22;12311;50.866;4.332;2023-01-10T17:21:19;8.00;99.90
24152;DHT22;12311;50.866;4.332;2023-01-10T17:23:45;8.00;99.90
24152;DHT22;12311;50.866;4.332;2023-01-10T17:26:13;8.00;99.90
24152;DHT22;12311;50.866;4.332;2023-01-10T17:28:39;8.10;99.90
24152;DHT22;12311;50.866;4.332;2023-01-10T17:31:09;8.10;99.90
24152;DHT22;12311;50.866;4.332;2023-01-10T17:33:35;8.10;99.90
24152;DHT22;12311;50.866;4.332;2023-01-10T17:36:00;8.20;99.90
24152;DHT22;12311;50.866;4.332;2023-01-10T17:38:28;8.20;99.90
24152;DHT22;12311;50.866;4.332;2023-01-10T17:40:54;8.20;99.90
24152;DHT22;12311;50.866;4.332;2023-01-10T17:43:22;8.20;99.90
24152;DHT22;12311;50.866;4.332;2023-01-10T17:45:49;8.20;99.90
24152;DHT22;12311;50.866;4.332;2023-01-10T17:48:16;8.10;99.90
24152;DHT22;12311;50.866;4.332;2023-01-10T17:50:43;8.10;99.90